createdAt,value
2023-03-19T00:12:04.354Z,0.8
2023-03-19T00:26:04.383Z,0
2023-03-19T00:40:04.398Z,0
2023-03-19T00:54:04.372Z,0
2023-03-19T01:08:04.432Z,0
2023-03-19T01:22:04.396Z,0.8
2023-03-19T01:36:04.468Z,0.8
2023-03-19T01:50:04.445Z,0.2
2023-03-19T02:04:04.501Z,0.8
2023-03-19T02:18:04.469Z,0.6
2023-03-19T02:32:04.500Z,0.8
2023-03-19T02:46:04.552Z,0.6
2023-03-19T03:00:04.584Z,0.8
2023-03-19T03:14:04.600Z,0.8
2023-03-19T03:28:04.557Z,0.8
2023-03-19T03:42:04.591Z,0
2023-03-19T03:56:04.639Z,0.4
2023-03-19T04:10:04.644Z,0
2023-03-19T04:24:04.754Z,0
2023-03-19T04:38:04.687Z,0
2023-03-19T04:52:04.674Z,0.4
2023-03-19T05:06:04.685Z,0
2023-03-19T05:20:04.703Z,0.9
2023-03-19T05:35:04.900Z,0
2023-03-19T05:50:04.850Z,0
2023-03-19T06:06:04.965Z,0
2023-03-19T06:21:04.796Z,0
2023-03-19T06:36:04.909Z,0
2023-03-19T06:51:04.796Z,0
2023-03-19T07:06:04.813Z,0
2023-03-19T07:21:04.859Z,0
2023-03-19T07:36:04.859Z,0
2023-03-19T07:51:04.875Z,0
2023-03-19T08:06:04.886Z,0
2023-03-19T08:21:04.926Z,0.4
2023-03-19T08:36:04.951Z,0.2
2023-03-19T08:56:04.942Z,0
2023-03-19T09:11:04.989Z,0.8
2023-03-19T09:26:04.971Z,0.8
2023-03-19T09:41:04.971Z,0
2023-03-19T09:56:04.982Z,0
2023-03-19T10:11:04.996Z,0.8
2023-03-19T10:26:05.020Z,0.8
2023-03-19T10:41:05.051Z,0.8
2023-03-19T10:56:05.048Z,0.8
2023-03-19T11:11:05.067Z,0.6
2023-03-19T11:26:11.794Z,1.0
2023-03-19T11:41:11.846Z,1.0
2023-03-19T11:56:05.109Z,1.4
2023-03-19T12:11:05.181Z,0.6
2023-03-19T12:26:05.218Z,0.6
2023-03-19T12:41:05.248Z,0.8
2023-03-19T12:56:05.205Z,0.9
2023-03-19T13:11:05.222Z,1.3
2023-03-19T13:26:05.268Z,0.8
2023-03-19T13:41:05.261Z,0.6
2023-03-19T13:56:12.712Z,1.0
2023-03-19T14:11:05.400Z,0.9
2023-03-19T14:26:05.304Z,0.8
2023-03-19T14:41:05.301Z,1.0
2023-03-19T14:56:05.459Z,0.2
2023-03-19T15:11:05.462Z,0.8
2023-03-19T15:26:05.452Z,0.8
2023-03-19T15:41:05.542Z,0.4
2023-03-19T15:56:05.479Z,0.6
2023-03-19T16:11:05.531Z,0.4
2023-03-19T16:26:05.518Z,0
2023-03-19T16:41:05.403Z,0
2023-03-19T16:56:05.462Z,0
2023-03-19T17:11:05.575Z,0
2023-03-19T17:26:05.579Z,0
2023-03-19T17:41:05.471Z,0
2023-03-19T17:56:05.492Z,0
2023-03-19T18:10:05.642Z,0
2023-03-19T18:24:05.501Z,0
2023-03-19T18:38:05.659Z,0
2023-03-19T18:52:05.564Z,0
2023-03-19T19:06:05.701Z,0
2023-03-19T19:20:05.596Z,0
2023-03-19T19:34:05.722Z,0
2023-03-19T19:48:05.646Z,0
2023-03-19T20:02:05.639Z,0
2023-03-19T20:16:05.696Z,0
2023-03-19T20:30:05.655Z,0
2023-03-19T20:44:05.660Z,0
2023-03-19T20:58:05.662Z,0
2023-03-19T21:12:05.666Z,0
2023-03-19T21:26:05.700Z,0
2023-03-19T21:40:05.715Z,0
2023-03-19T21:54:05.725Z,0
2023-03-19T22:08:05.781Z,0
2023-03-19T22:22:05.743Z,0
2023-03-19T22:36:05.792Z,0
2023-03-19T22:50:05.784Z,0
2023-03-19T23:04:05.812Z,0
2023-03-19T23:18:05.771Z,0
2023-03-19T23:32:05.816Z,0
2023-03-19T23:46:05.852Z,0
